createdAt,value
2017-05-11T00:01:12.950Z,24.58
2017-05-11T00:02:12.740Z,24.39
2017-05-11T00:03:12.680Z,24.58
2017-05-11T00:04:12.613Z,24.58
2017-05-11T00:05:12.548Z,24.29
2017-05-11T00:06:12.737Z,24.29
2017-05-11T00:07:12.428Z,24.58
2017-05-11T00:08:12.359Z,24.29
2017-05-11T00:09:12.297Z,24.29
2017-05-11T00:10:12.233Z,24.49
2017-05-11T00:11:12.169Z,24.58
2017-05-11T00:12:12.109Z,24.58
2017-05-11T00:13:12.048Z,24.68
2017-05-11T00:14:11.983Z,24.77
2017-05-11T00:15:11.614Z,24.68
2017-05-11T00:16:11.854Z,24.39
2017-05-11T00:17:11.792Z,24.68
2017-05-11T00:18:11.734Z,24.68
2017-05-11T00:19:11.664Z,24.58
2017-05-11T00:20:11.601Z,24.49
2017-05-11T00:21:11.538Z,24.58
2017-05-11T00:22:11.475Z,24.58
2017-05-11T00:23:11.412Z,24.58
2017-05-11T00:24:11.349Z,24.77
2017-05-11T00:25:10.983Z,24.58
2017-05-11T00:26:11.221Z,24.77
2017-05-11T00:27:11.158Z,24.58
2017-05-11T00:28:11.100Z,24.68
2017-05-11T00:29:11.034Z,24.39
2017-05-11T00:30:10.967Z,24.77
2017-05-11T00:31:10.910Z,24.77
2017-05-11T00:32:10.543Z,24.58
2017-05-11T00:33:10.476Z,24.58
2017-05-11T00:34:10.720Z,24.77
2017-05-11T00:35:10.655Z,24.68
2017-05-11T00:36:10.589Z,24.58
2017-05-11T00:37:10.527Z,24.49
2017-05-11T00:38:10.465Z,24.68
2017-05-11T00:39:10.404Z,24.58
2017-05-11T00:40:10.339Z,24.58
2017-05-11T00:41:10.275Z,24.49
2017-05-11T00:42:10.462Z,24.58
2017-05-11T00:43:09.882Z,24.68
2017-05-11T00:44:10.086Z,24.77
2017-05-11T00:45:10.022Z,24.58
2017-05-11T00:46:09.958Z,24.87
2017-05-11T00:47:09.593Z,24.87
2017-05-11T00:48:09.831Z,24.58
2017-05-11T00:49:09.771Z,24.58
2017-05-11T00:50:09.704Z,24.58
2017-05-11T00:51:09.642Z,24.6
2017-05-11T00:52:09.579Z,24.69
2017-05-11T00:53:09.515Z,24.58
2017-05-11T00:54:09.450Z,24.58
2017-05-11T00:55:09.388Z,24.58
2017-05-11T00:56:09.325Z,24.68
2017-05-11T00:57:09.265Z,24.58
2017-05-11T00:58:09.202Z,24.6
2017-05-11T00:59:09.137Z,24.58
2017-05-11T01:00:09.173Z,24.68
2017-05-11T01:01:09.012Z,24.49
2017-05-11T01:02:08.946Z,24.68
2017-05-11T01:03:08.887Z,24.77
2017-05-11T01:04:08.820Z,24.79
2017-05-11T01:05:08.756Z,24.68
2017-05-11T01:06:08.693Z,24.68
2017-05-11T01:07:08.629Z,24.49
2017-05-11T01:08:08.566Z,24.77
2017-05-11T01:09:08.506Z,24.69
2017-05-11T01:10:08.439Z,24.58
2017-05-11T01:11:08.390Z,24.68
2017-05-11T01:12:08.316Z,24.77
2017-05-11T01:13:08.254Z,24.77
2017-05-11T01:14:08.185Z,24.77
2017-05-11T01:15:08.124Z,24.79
2017-05-11T01:16:08.062Z,24.77
2017-05-11T01:17:07.997Z,24.77
2017-05-11T01:18:07.934Z,24.77
2017-05-11T01:19:07.874Z,24.58
2017-05-11T01:20:07.810Z,24.87
2017-05-11T01:21:07.752Z,24.79
2017-05-11T01:22:07.682Z,24.77
2017-05-11T01:23:07.619Z,24.88
2017-05-11T01:24:07.558Z,24.87
2017-05-11T01:25:07.492Z,24.88
2017-05-11T01:26:07.430Z,24.79
2017-05-11T01:27:07.367Z,24.77
2017-05-11T01:28:07.301Z,24.77
2017-05-11T01:29:07.240Z,24.87
2017-05-11T01:30:07.179Z,24.87
2017-05-11T01:31:07.114Z,24.77
2017-05-11T01:32:07.053Z,24.77
2017-05-11T01:33:06.989Z,24.87
2017-05-11T01:34:06.925Z,24.79
2017-05-11T01:35:06.864Z,24.68
2017-05-11T01:36:06.797Z,24.87
2017-05-11T01:37:06.736Z,24.88
2017-05-11T01:38:06.673Z,24.79
2017-05-11T01:39:06.612Z,24.87
2017-05-11T01:40:06.547Z,24.68
2017-05-11T01:41:06.484Z,24.68
2017-05-11T01:42:06.425Z,24.69
2017-05-11T01:43:06.358Z,24.87
2017-05-11T01:44:06.299Z,24.68
2017-05-11T01:45:06.230Z,24.68
2017-05-11T01:46:06.373Z,24.69
2017-05-11T01:47:05.799Z,24.68
2017-05-11T01:48:06.042Z,24.68
2017-05-11T01:49:05.976Z,24.77
2017-05-11T01:50:05.913Z,24.68
2017-05-11T01:51:05.852Z,24.77
2017-05-11T01:52:05.789Z,24.68
2017-05-11T01:53:05.726Z,24.68
2017-05-11T01:54:05.669Z,24.68
2017-05-11T01:55:05.293Z,24.77
2017-05-11T01:56:05.535Z,24.68
2017-05-11T01:57:05.470Z,24.79
2017-05-11T01:58:05.408Z,24.87
2017-05-11T01:59:05.343Z,24.77
2017-05-11T02:00:04.985Z,24.88
2017-05-11T02:01:05.218Z,24.68
2017-05-11T02:02:05.155Z,24.77
2017-05-11T02:03:05.090Z,24.58
2017-05-11T02:04:05.030Z,24.87
2017-05-11T02:05:04.963Z,24.87
2017-05-11T02:06:04.902Z,24.68
2017-05-11T02:07:04.840Z,24.87
2017-05-11T02:08:04.776Z,24.79
2017-05-11T02:09:04.713Z,24.58
2017-05-11T02:10:04.649Z,24.68
2017-05-11T02:11:04.586Z,24.79
2017-05-11T02:12:04.524Z,24.68
2017-05-11T02:13:04.457Z,24.79
2017-05-11T02:14:04.397Z,24.68
2017-05-11T02:15:04.332Z,24.77
2017-05-11T02:16:04.268Z,24.68
2017-05-11T02:17:04.207Z,24.68
2017-05-11T02:18:04.150Z,24.79
2017-05-11T02:19:04.079Z,24.68
2017-05-11T02:20:04.021Z,24.68
2017-05-11T02:21:03.954Z,24.68
2017-05-11T02:22:03.890Z,24.87
2017-05-11T02:23:03.831Z,24.87
2017-05-11T02:24:03.766Z,24.58
2017-05-11T02:25:03.699Z,24.97
2017-05-11T02:26:03.638Z,24.68
2017-05-11T02:27:03.573Z,24.79
2017-05-11T02:28:03.512Z,24.68
2017-05-11T02:29:03.450Z,24.77
2017-05-11T02:31:03.320Z,24.87
2017-05-11T02:32:03.300Z,24.79
2017-05-11T02:33:03.196Z,24.87
2017-05-11T02:34:03.131Z,24.77
2017-05-11T02:35:03.067Z,24.77
2017-05-11T02:36:03.005Z,24.77
2017-05-11T02:37:02.942Z,24.77
2017-05-11T02:38:02.878Z,24.77
2017-05-11T02:39:02.816Z,24.98
2017-05-11T02:40:02.449Z,24.77
2017-05-11T02:41:02.696Z,24.97
2017-05-11T02:42:02.627Z,24.97
2017-05-11T02:43:02.562Z,24.87
2017-05-11T02:44:02.499Z,24.87
2017-05-11T02:45:02.437Z,24.98
2017-05-11T02:46:02.072Z,24.97
2017-05-11T02:47:02.312Z,24.87
2017-05-11T02:48:02.249Z,24.97
2017-05-11T02:49:02.183Z,24.68
2017-05-11T02:50:02.121Z,25.07
2017-05-11T02:51:02.058Z,24.87
2017-05-11T02:52:01.992Z,24.69
2017-05-11T02:53:01.930Z,24.87
2017-05-11T02:54:01.866Z,24.97
2017-05-11T02:55:01.808Z,24.97
2017-05-11T02:56:01.741Z,24.79
2017-05-11T02:57:01.683Z,24.87
2017-05-11T02:58:01.620Z,24.97
2017-05-11T02:59:01.550Z,24.77
2017-05-11T03:00:01.490Z,24.87
2017-05-11T03:01:01.424Z,24.77
2017-05-11T03:02:01.361Z,24.77
2017-05-11T03:03:01.003Z,24.77
2017-05-11T03:04:01.234Z,24.97
2017-05-11T03:05:01.171Z,24.97
2017-05-11T03:06:01.109Z,24.68
2017-05-11T03:07:01.045Z,24.68
2017-05-11T03:08:00.982Z,24.97
2017-05-11T03:09:00.918Z,24.68
2017-05-11T03:10:00.857Z,24.98
2017-05-11T03:11:00.792Z,24.68
2017-05-11T03:12:00.733Z,24.77
2017-05-11T03:13:00.666Z,24.77
2017-05-11T03:14:00.601Z,24.77
2017-05-11T03:15:00.242Z,24.68
2017-05-11T03:16:00.478Z,24.77
2017-05-11T03:17:00.415Z,24.77
2017-05-11T03:18:00.352Z,24.68
2017-05-11T03:19:00.287Z,24.77
2017-05-11T03:20:00.230Z,24.69
2017-05-11T03:21:00.159Z,24.69
2017-05-11T03:21:59.806Z,24.68
2017-05-11T03:23:00.034Z,24.68
2017-05-11T03:23:59.670Z,24.68
2017-05-11T03:24:59.908Z,24.97
2017-05-11T03:25:59.843Z,24.68
2017-05-11T03:26:59.780Z,25.16
2017-05-11T03:27:59.724Z,24.79
2017-05-11T03:28:59.656Z,24.97
2017-05-11T03:29:59.290Z,24.68
2017-05-11T03:30:59.531Z,24.87
2017-05-11T03:31:59.465Z,24.98
2017-05-11T03:32:59.401Z,24.77
2017-05-11T03:33:59.041Z,24.68
2017-05-11T03:34:59.020Z,25.07
2017-05-11T03:35:59.214Z,24.68
2017-05-11T03:36:59.150Z,24.98
2017-05-11T03:37:59.088Z,24.97
2017-05-11T03:38:59.024Z,24.77
2017-05-11T03:39:58.960Z,24.87
2017-05-11T03:40:58.896Z,25.08
2017-05-11T03:41:58.834Z,24.77
2017-05-11T03:42:58.770Z,24.98
2017-05-11T03:43:58.708Z,25.07
2017-05-11T03:44:58.644Z,24.97
2017-05-11T03:45:58.584Z,25.07
2017-05-11T03:46:58.521Z,25.07
2017-05-11T03:47:58.455Z,25.08
2017-05-11T03:48:58.394Z,24.98
2017-05-11T03:49:58.328Z,24.98
2017-05-11T03:50:58.264Z,24.97
2017-05-11T03:51:58.201Z,24.77
2017-05-11T03:52:58.138Z,25.07
2017-05-11T03:53:58.078Z,25.07
2017-05-11T03:54:58.012Z,25.07
2017-05-11T03:55:57.949Z,24.98
2017-05-11T03:56:57.885Z,25.07
2017-05-11T03:57:57.821Z,25.07
2017-05-11T03:58:57.757Z,25.08
2017-05-11T03:59:57.702Z,24.98
2017-05-11T04:00:57.638Z,24.88
2017-05-11T04:01:57.568Z,24.98
2017-05-11T04:02:57.508Z,24.98
2017-05-11T04:03:57.441Z,24.98
2017-05-11T04:04:57.380Z,24.97
2017-05-11T04:05:57.314Z,25.07
2017-05-11T04:06:57.255Z,24.98
2017-05-11T04:07:57.191Z,25.16
2017-05-11T04:08:57.125Z,24.77
2017-05-11T04:09:57.066Z,24.87
2017-05-11T04:10:56.698Z,24.87
2017-05-11T04:11:56.937Z,24.87
2017-05-11T04:12:56.881Z,24.77
2017-05-11T04:13:56.808Z,24.68
2017-05-11T04:14:56.745Z,24.77
2017-05-11T04:15:56.687Z,25.07
2017-05-11T04:16:56.620Z,24.97
2017-05-11T04:17:56.556Z,25.07
2017-05-11T04:18:56.494Z,25.07
2017-05-11T04:19:56.429Z,24.97
2017-05-11T04:20:56.364Z,24.97
2017-05-11T04:21:56.309Z,24.97
2017-05-11T04:22:56.240Z,25.07
2017-05-11T04:23:56.180Z,25.07
2017-05-11T04:24:56.113Z,25.07
2017-05-11T04:25:56.050Z,25.07
2017-05-11T04:26:55.986Z,25.07
2017-05-11T04:27:55.926Z,24.97
2017-05-11T04:28:55.860Z,24.87
2017-05-11T04:29:55.798Z,25.07
2017-05-11T04:30:55.735Z,25.07
2017-05-11T04:31:55.670Z,25.07
2017-05-11T04:32:55.609Z,24.97
2017-05-11T04:33:55.545Z,24.97
2017-05-11T04:34:55.480Z,24.97
2017-05-11T04:35:55.417Z,25.26
2017-05-11T04:36:55.358Z,25.07
2017-05-11T04:37:55.290Z,25.07
2017-05-11T04:38:55.226Z,25.07
2017-05-11T04:39:54.862Z,25.07
2017-05-11T04:40:55.097Z,25.16
2017-05-11T04:41:55.035Z,25.16
2017-05-11T04:42:54.973Z,25.16
2017-05-11T04:43:54.910Z,25.16
2017-05-11T04:44:54.850Z,25.16
2017-05-11T04:45:54.785Z,25.16
2017-05-11T04:46:54.721Z,25.07
2017-05-11T04:47:54.658Z,25.16
2017-05-11T04:48:54.596Z,25.26
2017-05-11T04:49:54.533Z,25.16
2017-05-11T04:50:54.467Z,25.26
2017-05-11T04:51:54.405Z,25.16
2017-05-11T04:52:54.338Z,25.26
2017-05-11T04:53:54.279Z,25.35
2017-05-11T04:54:54.215Z,25.16
2017-05-11T04:55:54.147Z,25.35
2017-05-11T04:56:54.086Z,25.35
2017-05-11T04:57:54.024Z,25.35
2017-05-11T04:58:53.959Z,25.35
2017-05-11T04:59:53.896Z,25.45
2017-05-11T05:00:53.833Z,25.45
2017-05-11T05:01:53.772Z,25.35
2017-05-11T05:02:53.752Z,25.35
2017-05-11T05:03:53.640Z,25.45
2017-05-11T05:04:53.576Z,25.45
2017-05-11T05:05:53.815Z,25.55
2017-05-11T05:06:53.450Z,25.35
2017-05-11T05:07:53.389Z,25.35
2017-05-11T05:08:53.324Z,25.55
2017-05-11T05:09:53.265Z,25.45
2017-05-11T05:10:53.200Z,25.45
2017-05-11T05:11:53.133Z,25.35
2017-05-11T05:12:53.076Z,25.35
2017-05-11T05:13:53.006Z,25.55
2017-05-11T05:14:52.944Z,25.55
2017-05-11T05:15:52.879Z,25.45
2017-05-11T05:16:52.815Z,25.55
2017-05-11T05:17:52.753Z,25.45
2017-05-11T05:18:52.689Z,25.45
2017-05-11T05:19:52.627Z,25.55
2017-05-11T05:20:52.564Z,25.35
2017-05-11T05:21:52.499Z,25.64
2017-05-11T05:22:52.439Z,25.45
2017-05-11T05:23:52.070Z,25.55
2017-05-11T05:24:52.321Z,25.55
2017-05-11T05:25:52.244Z,25.35
2017-05-11T05:26:52.182Z,25.45
2017-05-11T05:27:52.119Z,25.54
2017-05-11T05:28:52.055Z,25.63
2017-05-11T05:29:51.992Z,25.54
2017-05-11T05:30:51.929Z,25.55
2017-05-11T05:31:51.866Z,25.55
2017-05-11T05:32:51.805Z,25.55
2017-05-11T05:33:51.735Z,25.54
2017-05-11T05:34:51.672Z,25.64
2017-05-11T05:35:51.612Z,25.63
2017-05-11T05:36:51.546Z,25.64
2017-05-11T05:37:51.482Z,25.82
2017-05-11T05:38:51.418Z,25.84
2017-05-11T05:39:51.356Z,25.74
2017-05-11T05:40:51.294Z,25.74
2017-05-11T05:41:51.237Z,25.82
2017-05-11T05:42:51.166Z,25.93
2017-05-11T05:43:51.100Z,25.84
2017-05-11T05:44:51.038Z,25.64
2017-05-11T05:45:50.974Z,25.93
2017-05-11T05:46:50.911Z,25.84
2017-05-11T05:47:50.847Z,25.84
2017-05-11T05:48:50.785Z,25.82
2017-05-11T05:49:50.720Z,25.84
2017-05-11T05:50:50.654Z,25.93
2017-05-11T05:51:50.592Z,25.84
2017-05-11T05:52:50.529Z,25.82
2017-05-11T05:53:50.466Z,25.82
2017-05-11T05:54:50.403Z,25.92
2017-05-11T05:55:50.338Z,25.73
2017-05-11T05:56:50.274Z,25.84
2017-05-11T05:57:50.212Z,25.82
2017-05-11T05:58:50.156Z,25.82
2017-05-11T05:59:50.085Z,25.92
2017-05-11T06:00:50.024Z,25.82
2017-05-11T06:01:49.957Z,25.82
2017-05-11T06:02:49.892Z,25.84
2017-05-11T06:03:49.875Z,25.92
2017-05-11T06:04:49.765Z,25.82
2017-05-11T06:05:49.702Z,25.84
2017-05-11T06:06:49.638Z,25.92
2017-05-11T06:07:49.576Z,25.93
2017-05-11T06:08:49.512Z,25.92
2017-05-11T06:09:49.447Z,25.82
2017-05-11T06:10:49.387Z,25.92
2017-05-11T06:11:49.322Z,25.93
2017-05-11T06:12:49.259Z,25.82
2017-05-11T06:13:49.193Z,25.82
2017-05-11T06:14:49.130Z,25.82
2017-05-11T06:15:49.093Z,25.93
2017-05-11T06:16:49.009Z,25.93
2017-05-11T06:17:48.939Z,25.93
2017-05-11T06:18:48.877Z,25.82
2017-05-11T06:19:48.813Z,25.82
2017-05-11T06:20:48.446Z,25.92
2017-05-11T06:21:48.685Z,25.92
2017-05-11T06:22:48.630Z,25.92
2017-05-11T06:23:48.618Z,25.92
2017-05-11T06:24:48.498Z,25.82
2017-05-11T06:25:48.560Z,25.92
2017-05-11T06:26:48.373Z,25.92
2017-05-11T06:27:48.305Z,25.73
2017-05-11T06:28:48.241Z,25.93
2017-05-11T06:29:48.177Z,25.73
2017-05-11T06:30:47.810Z,25.82
2017-05-11T06:31:48.051Z,25.73
2017-05-11T06:32:47.985Z,25.63
2017-05-11T06:33:47.923Z,25.73
2017-05-11T06:34:47.858Z,25.73
2017-05-11T06:35:47.796Z,25.73
2017-05-11T06:36:47.729Z,25.63
2017-05-11T06:37:47.669Z,25.63
2017-05-11T06:38:47.603Z,25.63
2017-05-11T06:39:47.240Z,25.63
2017-05-11T06:40:47.477Z,25.64
2017-05-11T06:41:47.417Z,25.73
2017-05-11T06:42:47.354Z,25.74
2017-05-11T06:43:47.285Z,25.84
2017-05-11T06:44:47.224Z,25.64
2017-05-11T06:45:47.157Z,25.82
2017-05-11T06:46:47.096Z,25.82
2017-05-11T06:47:47.032Z,25.82
2017-05-11T06:48:46.968Z,25.63
2017-05-11T06:49:46.904Z,25.73
2017-05-11T06:50:46.939Z,25.73
2017-05-11T06:51:46.777Z,25.73
2017-05-11T06:52:46.714Z,25.63
2017-05-11T06:53:46.650Z,25.73
2017-05-11T06:54:46.588Z,25.74
2017-05-11T06:55:46.623Z,25.73
2017-05-11T06:56:46.461Z,25.73
2017-05-11T06:57:46.397Z,25.63
2017-05-11T06:58:46.033Z,25.63
2017-05-11T06:59:46.271Z,25.63
2017-05-11T07:00:46.409Z,25.82
2017-05-11T07:01:46.139Z,25.82
2017-05-11T07:02:46.077Z,26.02
2017-05-11T07:03:46.014Z,26.21
2017-05-11T07:04:45.953Z,26.21
2017-05-11T07:05:45.886Z,26.32
2017-05-11T07:06:45.823Z,26.12
2017-05-11T07:07:45.764Z,26.22
2017-05-11T07:08:45.701Z,26.51
2017-05-11T07:09:45.632Z,26.8
2017-05-11T07:10:45.771Z,26.9
2017-05-11T07:11:45.303Z,27.19
2017-05-11T07:12:45.441Z,27.38
2017-05-11T07:13:45.379Z,28.15
2017-05-11T07:14:45.316Z,28.63
2017-05-11T07:15:45.252Z,28.63
2017-05-11T07:16:45.189Z,28.83
2017-05-11T07:17:45.125Z,29.21
2017-05-11T07:18:45.062Z,28.73
2017-05-11T07:19:44.995Z,29.31
2017-05-11T07:20:44.932Z,29.79
2017-05-11T07:21:44.872Z,30.08
2017-05-11T07:22:44.811Z,29.89
2017-05-11T07:23:44.745Z,30.46
2017-05-11T07:24:44.678Z,30.27
2017-05-11T07:25:44.615Z,30.77
2017-05-11T07:26:44.573Z,31.24
2017-05-11T07:27:44.491Z,31.04
2017-05-11T07:28:44.428Z,31.25
2017-05-11T07:29:44.365Z,31.81
2017-05-11T07:30:44.300Z,30.96
2017-05-11T07:31:44.237Z,29.8
2017-05-11T07:32:44.177Z,28.64
2017-05-11T07:33:44.135Z,27.78
2017-05-11T07:34:44.048Z,27.29
2017-05-11T07:35:43.983Z,26.81
2017-05-11T07:36:43.919Z,26.72
2017-05-11T07:37:43.860Z,26.62
2017-05-11T07:38:43.793Z,26.33
2017-05-11T07:39:43.731Z,26.33
2017-05-11T07:40:43.666Z,26.14
2017-05-11T07:41:43.604Z,26.14
2017-05-11T07:42:43.240Z,26.04
2017-05-11T07:43:43.480Z,26.04
2017-05-11T07:44:43.415Z,25.85
2017-05-11T07:45:43.352Z,26.04
2017-05-11T07:46:43.288Z,26.14
2017-05-11T07:47:43.229Z,25.85
2017-05-11T07:48:43.162Z,25.85
2017-05-11T07:49:43.099Z,25.85
2017-05-11T07:50:43.034Z,25.95
2017-05-11T07:51:42.972Z,26.14
2017-05-11T07:52:42.909Z,26.04
2017-05-11T07:53:42.845Z,26.04
2017-05-11T07:54:42.783Z,25.95
2017-05-11T07:55:42.718Z,25.85
2017-05-11T07:56:42.657Z,25.85
2017-05-11T07:57:42.595Z,25.95
2017-05-11T07:58:42.529Z,25.85
2017-05-11T07:59:42.165Z,25.95
2017-05-11T08:00:42.408Z,25.95
2017-05-11T08:01:42.467Z,25.85
2017-05-11T08:02:42.338Z,25.75
2017-05-11T08:03:42.225Z,25.66
2017-05-11T08:04:42.288Z,25.85
2017-05-11T08:05:42.253Z,26.33
2017-05-11T08:06:42.158Z,26.62
2017-05-11T08:07:42.126Z,26.72
2017-05-11T08:08:41.976Z,27.29
2017-05-11T08:09:42.050Z,27.29
2017-05-11T08:10:41.893Z,27.29
2017-05-11T08:11:41.872Z,27.78
2017-05-11T08:12:41.648Z,28.07
2017-05-11T08:13:41.583Z,28.07
2017-05-11T08:14:41.521Z,28.26
2017-05-11T08:15:41.458Z,28.47
2017-05-11T08:16:41.397Z,28.45
2017-05-11T08:17:41.331Z,28.76
2017-05-11T08:18:41.268Z,28.56
2017-05-11T08:19:41.206Z,28.74
2017-05-11T08:20:41.143Z,28.47
2017-05-11T08:21:41.078Z,28.85
2017-05-11T08:22:41.018Z,28.94
2017-05-11T08:23:40.956Z,28.76
2017-05-11T08:24:40.892Z,28.94
2017-05-11T08:25:40.828Z,28.95
2017-05-11T08:26:40.765Z,29.71
2017-05-11T08:27:40.701Z,29.14
2017-05-11T08:28:40.636Z,29.34
2017-05-11T08:29:40.578Z,29.14
2017-05-11T08:30:40.514Z,29.82
2017-05-11T08:31:40.455Z,29.24
2017-05-11T08:32:40.386Z,29.72
2017-05-11T08:33:40.335Z,29.72
2017-05-11T08:34:40.263Z,29.63
2017-05-11T08:35:40.202Z,29.63
2017-05-11T08:36:40.187Z,29.82
2017-05-11T08:37:40.076Z,29.63
2017-05-11T08:38:40.015Z,29.82
2017-05-11T08:39:39.981Z,29.82
2017-05-11T08:40:39.885Z,30.11
2017-05-11T08:41:39.828Z,30.11
2017-05-11T08:42:39.759Z,30.3
2017-05-11T08:43:39.697Z,30.3
2017-05-11T08:44:39.332Z,30.01
2017-05-11T08:45:39.822Z,30.01
2017-05-11T08:46:39.518Z,29.82
2017-05-11T08:47:39.448Z,30.11
2017-05-11T08:48:39.236Z,30.01
2017-05-11T08:49:39.018Z,30.21
2017-05-11T08:50:39.258Z,30.21
2017-05-11T08:51:39.324Z,30.11
2017-05-11T08:52:39.134Z,30.11
2017-05-11T08:53:39.072Z,30.11
2017-05-11T08:54:39.310Z,30.21
2017-05-11T08:55:39.098Z,30.3
2017-05-11T08:56:38.884Z,30.49
2017-05-11T08:57:38.819Z,30.59
2017-05-11T08:58:38.757Z,30.4
2017-05-11T08:59:38.953Z,30.11
2017-05-11T09:00:38.793Z,30.59
2017-05-11T09:01:38.570Z,30.3
2017-05-11T09:02:38.515Z,30.59
2017-05-11T09:03:38.457Z,30.3
2017-05-11T09:04:38.484Z,30.69
2017-05-11T09:05:38.422Z,30.3
2017-05-11T09:06:38.255Z,30.3
2017-05-11T09:07:38.196Z,30.61
2017-05-11T09:08:38.130Z,30.22
2017-05-11T09:09:38.070Z,30.41
2017-05-11T09:10:38.045Z,30.32
2017-05-11T09:11:37.942Z,30.32
2017-05-11T09:12:37.881Z,30.41
2017-05-11T09:13:37.823Z,30.51
2017-05-11T09:14:37.759Z,30.41
2017-05-11T09:15:37.694Z,30.51
2017-05-11T09:16:37.635Z,30.51
2017-05-11T09:17:37.275Z,28.67
2017-05-11T09:18:37.509Z,28.48
2017-05-11T09:19:37.457Z,27.71
2017-05-11T09:20:37.533Z,27.51
2017-05-11T09:21:37.320Z,27.33
2017-05-11T09:22:37.255Z,27.13
2017-05-11T09:23:37.198Z,26.65
2017-05-11T09:24:37.134Z,26.65
2017-05-11T09:25:37.372Z,26.17
2017-05-11T09:26:37.007Z,26.07
2017-05-11T09:27:36.944Z,25.97
2017-05-11T09:28:36.882Z,25.78
2017-05-11T09:29:36.822Z,25.68
2017-05-11T09:30:36.768Z,25.68
2017-05-11T09:31:36.705Z,25.39
2017-05-11T09:32:36.635Z,25.39
2017-05-11T09:33:36.573Z,25.1
2017-05-11T09:34:36.511Z,25.1
2017-05-11T09:35:36.450Z,24.72
2017-05-11T09:36:36.391Z,24.91
2017-05-11T09:37:36.324Z,24.81
2017-05-11T09:38:36.260Z,24.52
2017-05-11T09:39:36.204Z,24.52
2017-05-11T09:40:36.140Z,24.43
2017-05-11T09:41:36.079Z,24.33
2017-05-11T09:42:36.018Z,24.33
2017-05-11T09:43:35.959Z,24.43
2017-05-11T09:44:35.891Z,24.23
2017-05-11T09:45:35.826Z,24.23
2017-05-11T09:46:35.808Z,24.14
2017-05-11T09:47:35.700Z,24.33
2017-05-11T09:48:35.636Z,24.33
2017-05-11T09:49:35.588Z,24.23
2017-05-11T09:50:35.520Z,24.04
2017-05-11T09:51:35.455Z,23.85
2017-05-11T09:52:35.391Z,23.85
2017-05-11T09:53:35.326Z,23.94
2017-05-11T09:54:35.262Z,23.86
2017-05-11T09:55:35.203Z,23.86
2017-05-11T09:56:35.139Z,23.75
2017-05-11T09:57:35.076Z,23.94
2017-05-11T09:58:35.014Z,23.96
2017-05-11T09:59:34.957Z,23.86
2017-05-11T10:00:34.892Z,23.96
2017-05-11T10:01:34.830Z,23.76
2017-05-11T10:02:34.771Z,23.76
2017-05-11T10:03:34.708Z,23.76
2017-05-11T10:04:34.642Z,23.76
2017-05-11T10:05:34.580Z,23.85
2017-05-11T10:06:34.515Z,23.86
2017-05-11T10:07:34.458Z,23.86
2017-05-11T10:08:34.392Z,23.47
2017-05-11T10:09:34.333Z,23.57
2017-05-11T10:10:34.266Z,23.66
2017-05-11T10:11:34.206Z,23.57
2017-05-11T10:12:34.144Z,23.47
2017-05-11T10:13:34.082Z,23.47
2017-05-11T10:14:34.017Z,23.96
2017-05-11T10:15:34.104Z,23.76
2017-05-11T10:16:33.893Z,23.86
2017-05-11T10:17:33.528Z,23.96
2017-05-11T10:18:33.766Z,23.96
2017-05-11T10:19:33.706Z,23.96
2017-05-11T10:20:33.644Z,23.96
2017-05-11T10:21:33.583Z,23.76
2017-05-11T10:22:33.536Z,23.47
2017-05-11T10:23:33.458Z,23.38
2017-05-11T10:24:33.395Z,23.47
2017-05-11T10:25:33.333Z,23.38
2017-05-11T10:26:33.270Z,23.47
2017-05-11T10:27:33.209Z,23.38
2017-05-11T10:28:33.147Z,23.47
2017-05-11T10:29:33.082Z,23.47
2017-05-11T10:30:33.020Z,24.05
2017-05-11T10:31:32.962Z,23.66
2017-05-11T10:32:32.897Z,23.66
2017-05-11T10:33:32.839Z,23.66
2017-05-11T10:34:32.777Z,23.66
2017-05-11T10:35:32.710Z,23.38
2017-05-11T10:36:32.649Z,23.57
2017-05-11T10:37:32.585Z,23.38
2017-05-11T10:38:32.525Z,23.86
2017-05-11T10:39:32.463Z,23.66
2017-05-11T10:40:32.396Z,23.47
2017-05-11T10:41:32.336Z,23.66
2017-05-11T10:42:32.275Z,23.66
2017-05-11T10:43:32.210Z,23.86
2017-05-11T10:44:32.147Z,23.66
2017-05-11T10:45:32.089Z,23.38
2017-05-11T10:46:32.024Z,23.29
2017-05-11T10:47:31.962Z,23.1
2017-05-11T10:48:31.903Z,23
2017-05-11T10:49:31.555Z,23.19
2017-05-11T10:50:31.798Z,23.1
2017-05-11T10:51:31.416Z,23.29
2017-05-11T10:52:31.663Z,23.19
2017-05-11T10:53:31.591Z,23.1
2017-05-11T10:54:31.529Z,23
2017-05-11T10:55:31.468Z,23.19
2017-05-11T10:56:31.406Z,23.19
2017-05-11T10:57:31.341Z,23.1
2017-05-11T10:58:31.282Z,23.29
2017-05-11T10:59:31.219Z,23.1
2017-05-11T11:00:31.201Z,23.19
2017-05-11T11:01:30.792Z,23.39
2017-05-11T11:02:31.036Z,23.29
2017-05-11T11:03:30.674Z,23.1
2017-05-11T11:04:30.909Z,23.29
2017-05-11T11:05:30.898Z,23.39
2017-05-11T11:06:30.785Z,23.97
2017-05-11T11:07:30.733Z,24.55
2017-05-11T11:08:30.661Z,24.93
2017-05-11T11:09:30.606Z,25.32
2017-05-11T11:10:30.541Z,25.32
2017-05-11T11:11:30.484Z,26.09
2017-05-11T11:12:30.416Z,25.99
2017-05-11T11:13:30.098Z,26.29
2017-05-11T11:14:30.296Z,26.29
2017-05-11T11:15:30.236Z,26.77
2017-05-11T11:16:29.874Z,27.06
2017-05-11T11:17:30.249Z,27.25
2017-05-11T11:18:30.049Z,27.83
2017-05-11T11:19:29.988Z,28.03
2017-05-11T11:20:29.976Z,27.45
2017-05-11T11:21:29.871Z,28.41
2017-05-11T11:22:29.802Z,28.41
2017-05-11T11:23:29.754Z,28.41
2017-05-11T11:24:29.676Z,28.51
2017-05-11T11:25:29.715Z,28.8
2017-05-11T11:26:29.556Z,28.51
2017-05-11T11:27:29.494Z,28.61
2017-05-11T11:28:29.431Z,28.8
2017-05-11T11:29:29.375Z,28.99
2017-05-11T11:30:29.326Z,29.38
2017-05-11T11:31:29.245Z,28.99
2017-05-11T11:32:29.186Z,28.8
2017-05-11T11:33:29.123Z,29.09
2017-05-11T11:34:29.061Z,29.86
2017-05-11T11:35:29.002Z,29.67
2017-05-11T11:36:28.946Z,29.86
2017-05-11T11:37:28.882Z,29.96
2017-05-11T11:38:28.818Z,30.25
2017-05-11T11:39:28.758Z,29.77
2017-05-11T11:40:28.693Z,29.86
2017-05-11T11:41:28.634Z,30.27
2017-05-11T11:42:28.583Z,30.17
2017-05-11T11:43:28.511Z,30.63
2017-05-11T11:44:28.455Z,30.27
2017-05-11T11:45:28.088Z,30.36
2017-05-11T11:46:28.332Z,30.55
2017-05-11T11:47:28.269Z,30.36
2017-05-11T11:48:28.214Z,30.65
2017-05-11T11:49:28.145Z,30.94
2017-05-11T11:50:28.186Z,30.85
2017-05-11T11:51:28.029Z,30.94
2017-05-11T11:52:27.965Z,31.43
2017-05-11T11:53:27.908Z,31.71
2017-05-11T11:54:27.846Z,31.33
2017-05-11T11:55:28.041Z,31.52
2017-05-11T11:56:27.720Z,31.52
2017-05-11T11:57:27.667Z,31.81
2017-05-11T11:58:27.602Z,31.91
2017-05-11T11:59:27.535Z,31.81
2017-05-11T12:00:27.473Z,32.01
2017-05-11T12:01:27.413Z,32.1
2017-05-11T12:02:27.353Z,32.2
2017-05-11T12:03:27.306Z,32.29
2017-05-11T12:04:27.229Z,32.01
2017-05-11T12:05:27.170Z,32.01
2017-05-11T12:06:27.110Z,32.49
2017-05-11T12:07:27.050Z,32.59
2017-05-11T12:08:26.985Z,32.59
2017-05-11T12:09:26.928Z,32.29
2017-05-11T12:10:26.865Z,32.39
2017-05-11T12:11:26.802Z,32.49
2017-05-11T12:12:26.743Z,32.1
2017-05-11T12:13:26.689Z,32.1
2017-05-11T12:14:26.618Z,32.2
2017-05-11T12:15:26.560Z,32.21
2017-05-11T12:16:26.200Z,32.49
2017-05-11T12:17:26.439Z,32.29
2017-05-11T12:18:26.380Z,32.02
2017-05-11T12:19:26.324Z,32.7
2017-05-11T12:20:26.257Z,32.59
2017-05-11T12:21:25.891Z,32.39
2017-05-11T12:22:26.134Z,32.41
2017-05-11T12:23:26.073Z,32.29
2017-05-11T12:24:25.713Z,32.51
2017-05-11T12:25:25.958Z,32.78
2017-05-11T12:26:25.893Z,32.87
2017-05-11T12:27:25.834Z,32.6
2017-05-11T12:28:25.770Z,32.68
2017-05-11T12:29:25.707Z,32.6
2017-05-11T12:30:25.648Z,32.59
2017-05-11T12:31:25.286Z,32.39
2017-05-11T12:32:25.527Z,32.31
2017-05-11T12:33:25.168Z,32.51
2017-05-11T12:34:25.103Z,32.6
2017-05-11T12:35:25.047Z,32.51
2017-05-11T12:36:25.296Z,32.6
2017-05-11T12:37:25.226Z,32.7
2017-05-11T12:38:25.164Z,32.6
2017-05-11T12:39:25.107Z,32.51
2017-05-11T12:40:25.050Z,32.51
2017-05-11T12:41:24.985Z,32.6
2017-05-11T12:42:24.926Z,32.51
2017-05-11T12:43:24.862Z,32.12
2017-05-11T12:44:24.799Z,32.02
2017-05-11T12:45:24.741Z,32.21
2017-05-11T12:46:24.679Z,32.21
2017-05-11T12:47:24.620Z,31.73
2017-05-11T12:48:24.557Z,32.02
2017-05-11T12:49:24.537Z,32.12
2017-05-11T12:50:24.146Z,32.12
2017-05-11T12:51:24.381Z,32.02
2017-05-11T12:52:24.315Z,30.57
2017-05-11T12:53:24.256Z,28.44
2017-05-11T12:54:23.890Z,27.76
2017-05-11T12:55:24.130Z,27.47